Time;durP1;ratioP1;P1;durP2;ratioP2;P2;SDS_P1;SDS_P2;PMS_P1;PMS_P2;Temp;Humidity;BMP_temperature;BMP_pressure;BME280_temperature;BME280_humidity;BME280_pressure;Samples;Min_cycle;Max_cycle;Signal;HPM_P1;HPM_P2
2023/08/14 00:01:48;;;;;;;9.02;4.90;;;;;;;;;;4994141;28;20046;-84
2023/08/14 00:04:21;;;;;;;8.32;4.85;;;;;;;;;;5009074;28;20191;-83
2023/08/14 00:07:02;;;;;;;7.57;4.95;;;;;;;;;;5022645;28;20046;-84
2023/08/14 00:09:29;;;;;;;7.60;5.20;;;;;;;;;;4993186;28;20056;-84
2023/08/14 00:11:58;;;;;;;9.68;5.47;;;;;;;;;;5024445;28;20062;-84
2023/08/14 00:14:24;;;;;;;8.40;4.68;;;;;;;;;;5007607;28;20057;-84
2023/08/14 00:16:51;;;;;;;7.60;5.00;;;;;;;;;;5040924;28;20052;-84
2023/08/14 00:19:20;;;;;;;7.32;4.75;;;;;;;;;;5047060;28;20069;-84
2023/08/14 00:21:48;;;;;;;7.13;4.60;;;;;;;;;;5038820;28;20493;-84
2023/08/14 00:24:19;;;;;;;6.90;4.13;;;;;;;;;;5016077;28;20137;-84
2023/08/14 00:26:47;;;;;;;8.98;5.03;;;;;;;;;;5041336;28;20025;-84
2023/08/14 00:29:17;;;;;;;7.50;4.50;;;;;;;;;;5035326;28;20040;-84
2023/08/14 00:32:03;;;;;;;6.50;4.03;;;;;;;;;;5049518;28;20052;-84
2023/08/14 00:34:55;;;;;;;6.43;3.92;;;;;;;;;;5068372;28;20024;-83
2023/08/14 00:38:05;;;;;;;8.00;3.50;;;;;;;;;;5062210;28;20056;-83
2023/08/14 00:40:31;;;;;;;6.72;3.03;;;;;;;;;;5038672;28;20054;-84
2023/08/14 00:43:03;;;;;;;7.40;3.28;;;;;;;;;;4991611;28;20077;-83
2023/08/14 00:46:12;;;;;;;6.28;3.53;;;;;;;;;;5049613;28;20045;-84
2023/08/14 00:49:02;;;;;;;8.38;4.28;;;;;;;;;;5045391;28;20101;-84
2023/08/14 00:51:55;;;;;;;7.30;4.00;;;;;;;;;;5053880;28;20053;-83
2023/08/14 00:55:08;;;;;;;7.88;4.43;;;;;;;;;;5028976;28;20050;-83
2023/08/14 01:01:45;;;;;;;9.55;4.65;;;;;;;;;;5041906;28;20063;-83
2023/08/14 01:05:08;;;;;;;7.90;4.55;;;;;;;;;;5029191;28;20053;-84
2023/08/14 01:08:17;;;;;;;7.53;4.25;;;;;;;;;;5025839;28;20045;-83
2023/08/14 01:11:24;;;;;;;6.78;3.95;;;;;;;;;;5011106;28;20060;-83
2023/08/14 01:14:07;;;;;;;7.53;4.50;;;;;;;;;;4964625;28;20045;-84
2023/08/14 01:16:40;;;;;;;6.45;4.30;;;;;;;;;;5011723;28;20046;-83
2023/08/14 01:19:32;;;;;;;7.75;3.67;;;;;;;;;;5012219;28;20065;-84
2023/08/14 01:22:54;;;;;;;6.87;3.40;;;;;;;;;;5013796;28;20520;-84
2023/08/14 01:26:20;;;;;;;4.70;3.00;;;;;;;;;;4925420;29;20299;-84
2023/08/14 01:39:09;;;;;;;6.57;3.53;;;;;;;;;;4892500;29;20055;-84
2023/08/14 01:48:23;;;;;;;5.55;3.75;;;;;;;;;;4902292;29;20101;-84
2023/08/14 01:50:52;;;;;;;5.67;3.40;;;;;;;;;;4903096;29;20128;-84
2023/08/14 01:53:23;;;;;;;8.52;3.85;;;;;;;;;;4903516;29;20860;-84
2023/08/14 01:56:05;;;;;;;6.65;3.60;;;;;;;;;;4915101;29;20503;-84
2023/08/14 01:58:34;;;;;;;6.43;3.92;;;;;;;;;;4934918;28;20051;-84
2023/08/14 02:01:03;;;;;;;9.05;4.22;;;;;;;;;;4967735;28;20066;-84
2023/08/14 02:03:30;;;;;;;7.65;3.90;;;;;;;;;;4958951;28;20050;-84
2023/08/14 02:06:31;;;;;;;8.45;4.20;;;;;;;;;;5005597;28;20540;-84
2023/08/14 02:09:33;;;;;;;7.72;4.00;;;;;;;;;;5027544;28;20113;-84
2023/08/14 02:15:51;;;;;;;8.77;4.20;;;;;;;;;;5062686;28;20080;-84
2023/08/14 02:18:46;;;;;;;9.18;5.45;;;;;;;;;;5003131;28;20676;-84
2023/08/14 02:21:36;;;;;;;9.38;5.63;;;;;;;;;;4988798;28;20050;-84
2023/08/14 02:24:16;;;;;;;8.75;6.50;;;;;;;;;;4986759;28;20082;-84
2023/08/14 02:26:46;;;;;;;8.10;6.20;;;;;;;;;;5002040;28;20054;-84
2023/08/14 02:29:53;;;;;;;8.50;6.32;;;;;;;;;;5003221;28;20061;-84
2023/08/14 02:32:54;;;;;;;11.50;7.50;;;;;;;;;;4975979;28;20054;-84
2023/08/14 02:36:08;;;;;;;12.23;7.63;;;;;;;;;;4957303;28;20081;-84
2023/08/14 02:39:42;;;;;;;12.23;7.43;;;;;;;;;;4997149;28;20046;-84
2023/08/14 02:42:27;;;;;;;12.63;7.22;;;;;;;;;;4929156;29;20143;-85
2023/08/14 02:45:22;;;;;;;12.02;8.27;;;;;;;;;;4925340;29;20081;-83
2023/08/14 02:48:24;;;;;;;12.63;8.23;;;;;;;;;;4925083;29;20052;-84
2023/08/14 02:51:15;;;;;;;11.88;8.00;;;;;;;;;;4901740;29;20569;-85
2023/08/14 02:54:01;;;;;;;12.90;8.10;;;;;;;;;;4919558;29;20059;-84
2023/08/14 02:56:49;;;;;;;10.93;7.90;;;;;;;;;;4957178;28;20281;-83
2023/08/14 02:59:20;;;;;;;14.45;8.20;;;;;;;;;;4924597;29;20064;-85
2023/08/14 03:01:47;;;;;;;13.65;8.35;;;;;;;;;;4918341;29;20048;-84
2023/08/14 03:04:23;;;;;;;14.93;8.35;;;;;;;;;;4920742;29;20122;-84
2023/08/14 03:10:09;;;;;;;12.45;7.78;;;;;;;;;;4906133;29;20127;-84
2023/08/14 03:12:42;;;;;;;12.75;8.82;;;;;;;;;;4893540;29;20048;-85
2023/08/14 03:15:20;;;;;;;12.93;9.02;;;;;;;;;;4923152;29;20059;-84
2023/08/14 03:18:11;;;;;;;10.38;8.75;;;;;;;;;;4872078;29;20056;-84
2023/08/14 03:21:23;;;;;;;11.90;8.95;;;;;;;;;;4989919;28;20170;-84
2023/08/14 03:23:56;;;;;;;12.70;8.85;;;;;;;;;;4996452;28;20132;-84
2023/08/14 03:26:22;;;;;;;13.98;9.40;;;;;;;;;;4997663;28;20619;-84
2023/08/14 03:32:19;;;;;;;11.57;8.90;;;;;;;;;;5048211;28;20114;-84
2023/08/14 03:35:06;;;;;;;11.85;8.75;;;;;;;;;;5049439;28;20044;-84
2023/08/14 03:37:45;;;;;;;12.40;9.30;;;;;;;;;;5011683;28;20059;-84
2023/08/14 03:54:04;;;;;;;14.50;11.25;;;;;;;;;;5061022;28;20075;-85
2023/08/14 03:56:49;;;;;;;13.60;10.18;;;;;;;;;;5045316;28;20052;-84
2023/08/14 03:59:48;;;;;;;12.43;10.52;;;;;;;;;;5046794;28;20077;-85
2023/08/14 04:03:07;;;;;;;15.00;10.63;;;;;;;;;;5059217;28;20083;-83
2023/08/14 04:06:16;;;;;;;13.23;10.47;;;;;;;;;;5038432;28;20052;-84
2023/08/14 04:08:47;;;;;;;12.38;10.57;;;;;;;;;;5009205;28;20359;-84
2023/08/14 04:11:24;;;;;;;12.00;10.55;;;;;;;;;;5042292;28;20045;-85
2023/08/14 04:14:10;;;;;;;11.63;10.43;;;;;;;;;;5045984;28;20391;-84
2023/08/14 04:17:09;;;;;;;14.98;11.80;;;;;;;;;;5015283;28;20105;-84
2023/08/14 04:20:01;;;;;;;14.52;12.07;;;;;;;;;;5052837;28;20106;-84
2023/08/14 04:22:39;;;;;;;13.73;11.88;;;;;;;;;;5031972;28;20049;-83
2023/08/14 04:28:28;;;;;;;12.57;11.02;;;;;;;;;;5034211;28;20368;-84
2023/08/14 04:30:55;;;;;;;14.77;11.55;;;;;;;;;;5006675;28;20045;-83
2023/08/14 04:33:27;;;;;;;14.00;11.80;;;;;;;;;;5004833;28;20879;-84
2023/08/14 04:35:56;;;;;;;14.80;11.32;;;;;;;;;;5003831;28;20046;-83
2023/08/14 04:38:46;;;;;;;14.23;10.55;;;;;;;;;;5011434;28;20042;-84
2023/08/14 04:41:15;;;;;;;16.75;11.57;;;;;;;;;;5004922;28;20126;-85
2023/08/14 04:43:48;;;;;;;15.90;10.23;;;;;;;;;;4988574;28;20050;-83
2023/08/14 04:50:02;;;;;;;14.50;12.05;;;;;;;;;;5010826;28;20080;-84
2023/08/14 04:52:30;;;;;;;13.77;11.30;;;;;;;;;;4988059;28;20092;-84
2023/08/14 04:55:04;;;;;;;14.85;11.73;;;;;;;;;;5016486;28;20136;-84
2023/08/14 04:57:57;;;;;;;13.85;10.95;;;;;;;;;;5062866;28;20048;-84
2023/08/14 05:00:24;;;;;;;14.95;11.32;;;;;;;;;;5028131;28;20044;-83
2023/08/14 05:02:51;;;;;;;15.30;11.45;;;;;;;;;;5025056;28;20415;-83
2023/08/14 05:05:19;;;;;;;12.88;10.60;;;;;;;;;;5054405;28;20052;-84
2023/08/14 05:07:48;;;;;;;14.27;10.55;;;;;;;;;;5044327;28;20088;-83
2023/08/14 05:10:22;;;;;;;15.45;9.98;;;;;;;;;;5061380;28;20039;-84
2023/08/14 05:13:03;;;;;;;15.88;10.52;;;;;;;;;;5032122;28;20071;-83
2023/08/14 05:15:30;;;;;;;15.60;10.85;;;;;;;;;;5009738;28;20099;-83
2023/08/14 05:18:01;;;;;;;12.43;10.03;;;;;;;;;;5024939;28;20377;-83
2023/08/14 05:20:29;;;;;;;17.35;10.20;;;;;;;;;;5042298;28;20296;-83
2023/08/14 05:22:55;;;;;;;17.80;10.07;;;;;;;;;;5047875;28;20053;-84
2023/08/14 05:25:21;;;;;;;13.65;10.95;;;;;;;;;;5058383;28;20380;-84
2023/08/14 05:27:48;;;;;;;12.52;10.15;;;;;;;;;;5044755;28;20041;-83
2023/08/14 05:30:15;;;;;;;13.35;9.55;;;;;;;;;;5059436;28;20033;-83
2023/08/14 05:32:41;;;;;;;12.80;8.90;;;;;;;;;;5013811;28;20072;-83
2023/08/14 05:35:07;;;;;;;14.45;9.93;;;;;;;;;;5043894;28;20044;-84
2023/08/14 05:37:34;;;;;;;14.23;10.18;;;;;;;;;;5061254;28;20044;-84
2023/08/14 05:40:00;;;;;;;13.25;8.85;;;;;;;;;;5044396;28;20479;-84
2023/08/14 05:42:26;;;;;;;12.07;8.60;;;;;;;;;;5045755;28;20055;-84
2023/08/14 05:44:52;;;;;;;10.30;7.90;;;;;;;;;;5047356;28;20037;-83
2023/08/14 05:47:18;;;;;;;12.55;7.38;;;;;;;;;;5033977;28;20531;-84
2023/08/14 05:49:47;;;;;;;11.60;7.05;;;;;;;;;;5024867;28;20041;-84
2023/08/14 05:52:19;;;;;;;9.55;7.35;;;;;;;;;;5053015;28;20055;-84
2023/08/14 05:54:45;;;;;;;12.50;7.30;;;;;;;;;;5056005;28;20464;-83
2023/08/14 05:57:11;;;;;;;11.18;7.38;;;;;;;;;;5026007;28;20406;-84
2023/08/14 05:59:41;;;;;;;12.63;7.07;;;;;;;;;;5058151;28;20041;-84
2023/08/14 06:02:07;;;;;;;11.48;6.60;;;;;;;;;;5041889;28;20056;-85
2023/08/14 06:04:33;;;;;;;10.93;6.45;;;;;;;;;;5047987;28;20550;-85
2023/08/14 06:06:59;;;;;;;11.57;7.07;;;;;;;;;;5046855;28;20049;-83
2023/08/14 06:09:25;;;;;;;12.70;7.60;;;;;;;;;;5058336;28;20040;-85
2023/08/14 06:11:51;;;;;;;10.82;7.60;;;;;;;;;;5058951;28;20052;-84
2023/08/14 06:14:17;;;;;;;10.30;7.43;;;;;;;;;;5055299;28;20506;-84
2023/08/14 06:16:43;;;;;;;10.15;7.03;;;;;;;;;;5060615;28;20566;-84
2023/08/14 06:19:09;;;;;;;12.07;7.43;;;;;;;;;;5058241;28;20053;-85
2023/08/14 06:21:35;;;;;;;12.02;7.45;;;;;;;;;;5054022;28;20049;-85
2023/08/14 06:24:01;;;;;;;12.15;7.38;;;;;;;;;;5057905;28;20598;-86
2023/08/14 06:26:27;;;;;;;12.02;7.05;;;;;;;;;;5058341;28;20188;-85
2023/08/14 06:28:53;;;;;;;10.98;6.97;;;;;;;;;;5058671;28;20507;-85
2023/08/14 06:31:19;;;;;;;11.63;6.43;;;;;;;;;;5058819;28;20068;-85
2023/08/14 06:33:46;;;;;;;10.95;6.78;;;;;;;;;;5061629;28;20076;-85
2023/08/14 06:36:12;;;;;;;10.93;7.20;;;;;;;;;;5058510;28;20055;-84
2023/08/14 06:38:38;;;;;;;11.60;7.72;;;;;;;;;;5052261;28;20191;-84
2023/08/14 06:41:04;;;;;;;10.35;7.32;;;;;;;;;;5062032;28;20096;-84
2023/08/14 06:43:31;;;;;;;11.27;7.70;;;;;;;;;;5062664;28;20040;-85
2023/08/14 06:45:57;;;;;;;10.95;7.60;;;;;;;;;;5057435;28;20061;-85
2023/08/14 06:48:23;;;;;;;11.05;7.45;;;;;;;;;;5057511;28;20399;-85
2023/08/14 06:50:50;;;;;;;11.73;7.75;;;;;;;;;;5053454;28;20080;-86
2023/08/14 06:53:16;;;;;;;9.80;7.47;;;;;;;;;;5059087;28;20045;-85
2023/08/14 06:55:46;;;;;;;11.40;7.40;;;;;;;;;;5063850;28;20041;-84
2023/08/14 06:58:12;;;;;;;10.27;7.60;;;;;;;;;;5049014;28;20055;-84
2023/08/14 07:00:38;;;;;;;9.95;5.95;;;;;;;;;;5070149;28;20037;-84
2023/08/14 07:03:04;;;;;;;17.40;6.90;;;;;;;;;;5065775;28;20036;-84
2023/08/14 07:05:30;;;;;;;14.48;6.85;;;;;;;;;;5062988;28;20049;-84
2023/08/14 07:07:56;;;;;;;12.20;7.30;;;;;;;;;;5058082;28;20057;-84
2023/08/14 07:10:22;;;;;;;12.93;6.97;;;;;;;;;;5045584;28;20045;-84
2023/08/14 07:12:49;;;;;;;9.63;6.93;;;;;;;;;;5064533;28;20049;-84
2023/08/14 07:15:15;;;;;;;12.30;7.13;;;;;;;;;;5064828;28;20114;-84
2023/08/14 07:17:41;;;;;;;10.82;7.18;;;;;;;;;;5062525;28;20407;-83
2023/08/14 07:20:08;;;;;;;10.48;5.95;;;;;;;;;;5052365;28;20108;-85
2023/08/14 07:22:34;;;;;;;12.88;7.57;;;;;;;;;;5061949;28;20053;-84
2023/08/14 07:25:00;;;;;;;13.23;7.20;;;;;;;;;;5038305;28;20046;-84
2023/08/14 07:27:26;;;;;;;9.80;6.88;;;;;;;;;;5061733;28;20049;-84
2023/08/14 07:29:52;;;;;;;10.32;7.07;;;;;;;;;;5061217;28;20055;-83
2023/08/14 07:32:18;;;;;;;13.52;7.28;;;;;;;;;;5063920;28;20155;-84
2023/08/14 07:34:44;;;;;;;11.05;7.20;;;;;;;;;;5063780;28;20049;-83
2023/08/14 07:37:10;;;;;;;12.55;7.45;;;;;;;;;;5063461;28;20107;-85
2023/08/14 07:39:36;;;;;;;9.88;6.03;;;;;;;;;;5068019;28;20045;-84
2023/08/14 07:42:02;;;;;;;10.98;6.72;;;;;;;;;;5048938;28;20143;-84
2023/08/14 07:44:28;;;;;;;11.43;5.90;;;;;;;;;;5065264;28;20040;-83
2023/08/14 07:46:55;;;;;;;12.90;7.15;;;;;;;;;;5067234;28;20097;-84
2023/08/14 07:49:21;;;;;;;12.50;7.07;;;;;;;;;;5066056;28;20049;-84
2023/08/14 07:51:47;;;;;;;16.15;6.97;;;;;;;;;;5083865;28;20398;-84
2023/08/14 07:54:13;;;;;;;12.10;6.68;;;;;;;;;;5066257;28;20048;-84
2023/08/14 07:56:39;;;;;;;12.90;6.05;;;;;;;;;;5066232;28;20063;-84
2023/08/14 07:59:05;;;;;;;10.73;5.50;;;;;;;;;;5050492;28;20121;-83
2023/08/14 08:01:31;;;;;;;11.57;5.35;;;;;;;;;;5066200;28;20068;-84
2023/08/14 08:04:03;;;;;;;14.77;5.43;;;;;;;;;;5066357;28;20122;-83
2023/08/14 08:06:30;;;;;;;10.15;4.90;;;;;;;;;;5062253;28;20069;-84
2023/08/14 08:08:56;;;;;;;11.48;4.35;;;;;;;;;;5035567;28;20056;-84
2023/08/14 08:11:22;;;;;;;7.70;4.05;;;;;;;;;;5061658;28;20069;-83
2023/08/14 08:13:48;;;;;;;9.38;4.40;;;;;;;;;;5066083;28;20048;-82
2023/08/14 08:16:14;;;;;;;8.27;4.07;;;;;;;;;;5068345;28;20075;-85
2023/08/14 08:18:40;;;;;;;8.57;4.20;;;;;;;;;;5049601;28;20055;-84
2023/08/14 08:21:06;;;;;;;8.77;4.10;;;;;;;;;;5048331;28;20072;-83
2023/08/14 08:23:32;;;;;;;8.60;3.80;;;;;;;;;;5071929;28;20065;-84
2023/08/14 08:25:58;;;;;;;10.52;3.70;;;;;;;;;;5068557;28;20124;-84
2023/08/14 08:28:24;;;;;;;7.35;3.35;;;;;;;;;;5071000;28;20045;-83
2023/08/14 08:30:50;;;;;;;9.52;3.95;;;;;;;;;;5070796;28;20045;-84
2023/08/14 08:33:16;;;;;;;9.18;3.63;;;;;;;;;;5067311;28;20554;-85
2023/08/14 08:35:42;;;;;;;8.00;3.55;;;;;;;;;;5047688;28;20116;-84
2023/08/14 08:38:08;;;;;;;8.90;3.83;;;;;;;;;;5047776;28;20045;-84
2023/08/14 08:40:35;;;;;;;9.57;3.47;;;;;;;;;;5037487;28;20046;-83
2023/08/14 08:43:02;;;;;;;9.38;3.47;;;;;;;;;;5053791;28;20410;-84
2023/08/14 08:45:31;;;;;;;8.75;3.45;;;;;;;;;;5066960;28;20041;-83
2023/08/14 08:48:00;;;;;;;14.77;3.72;;;;;;;;;;5044670;28;20034;-86
2023/08/14 08:50:26;;;;;;;27.58;8.57;;;;;;;;;;5052262;28;20040;-84
2023/08/14 08:52:53;;;;;;;23.13;8.38;;;;;;;;;;5067557;28;20597;-85
2023/08/14 08:55:19;;;;;;;27.80;7.20;;;;;;;;;;5064199;28;20043;-88
2023/08/14 08:57:45;;;;;;;8.45;3.22;;;;;;;;;;5061307;28;20568;-85
2023/08/14 09:00:11;;;;;;;11.65;3.75;;;;;;;;;;5062777;28;20383;-84
2023/08/14 09:02:38;;;;;;;9.80;2.60;;;;;;;;;;5055842;28;20040;-85
2023/08/14 09:05:04;;;;;;;9.23;2.35;;;;;;;;;;5044423;28;20060;-85
2023/08/14 09:07:30;;;;;;;10.15;2.72;;;;;;;;;;5042379;28;20045;-85
2023/08/14 09:09:56;;;;;;;12.02;3.10;;;;;;;;;;5060135;28;20052;-84
2023/08/14 09:12:22;;;;;;;10.70;3.20;;;;;;;;;;5061528;28;20041;-85
2023/08/14 09:15:09;;;;;;;7.65;2.90;;;;;;;;;;5045726;28;20045;-83
2023/08/14 09:17:35;;;;;;;10.13;2.90;;;;;;;;;;5037061;28;20502;-85
2023/08/14 09:20:02;;;;;;;6.63;2.47;;;;;;;;;;5050521;28;20045;-85
2023/08/14 09:22:29;;;;;;;10.18;2.42;;;;;;;;;;5056935;28;20509;-86
2023/08/14 09:24:56;;;;;;;8.20;2.50;;;;;;;;;;5025801;28;20050;-85
2023/08/14 09:27:22;;;;;;;6.55;2.10;;;;;;;;;;5057424;28;20074;-85
2023/08/14 09:29:49;;;;;;;6.75;2.20;;;;;;;;;;5060417;28;20045;-84
2023/08/14 09:32:15;;;;;;;5.88;1.65;;;;;;;;;;5060769;28;20583;-84
2023/08/14 09:34:41;;;;;;;6.25;1.70;;;;;;;;;;5058042;28;20059;-84
2023/08/14 09:37:07;;;;;;;6.50;1.67;;;;;;;;;;5061322;28;20041;-85
2023/08/14 09:39:33;;;;;;;6.68;1.90;;;;;;;;;;5057305;28;20037;-83
2023/08/14 09:41:59;;;;;;;5.40;1.60;;;;;;;;;;5062160;28;20037;-85
2023/08/14 09:44:25;;;;;;;6.90;1.90;;;;;;;;;;5043720;28;20059;-84
2023/08/14 09:46:54;;;;;;;5.43;1.75;;;;;;;;;;5061853;28;20040;-85
2023/08/14 09:49:20;;;;;;;9.20;2.20;;;;;;;;;;5061412;28;20384;-84
2023/08/14 09:51:56;;;;;;;6.47;1.63;;;;;;;;;;5057966;28;20391;-84
2023/08/14 09:54:30;;;;;;;7.55;2.10;;;;;;;;;;5028484;28;20399;-84
2023/08/14 09:56:59;;;;;;;6.28;1.85;;;;;;;;;;5056044;28;20068;-85
2023/08/14 09:59:25;;;;;;;7.30;2.25;;;;;;;;;;5060864;28;20037;-85
2023/08/14 10:01:54;;;;;;;7.43;1.77;;;;;;;;;;5044725;28;20041;-85
2023/08/14 10:04:21;;;;;;;6.43;2.05;;;;;;;;;;5021021;28;20045;-83
2023/08/14 10:06:47;;;;;;;6.68;1.98;;;;;;;;;;5059882;28;20053;-84
2023/08/14 10:09:13;;;;;;;6.75;1.70;;;;;;;;;;5043926;28;20096;-84
2023/08/14 10:11:41;;;;;;;6.72;1.92;;;;;;;;;;5056698;28;20438;-85
2023/08/14 10:14:07;;;;;;;5.07;1.40;;;;;;;;;;5062464;28;20091;-84
2023/08/14 10:16:38;;;;;;;3.88;1.50;;;;;;;;;;5082058;28;20127;-84
2023/08/14 10:19:05;;;;;;;6.10;1.70;;;;;;;;;;5082166;28;20095;-84
2023/08/14 10:21:33;;;;;;;7.35;1.83;;;;;;;;;;5074083;28;21067;-84
2023/08/14 10:24:02;;;;;;;5.50;1.63;;;;;;;;;;5041045;28;20067;-84
2023/08/14 10:26:28;;;;;;;3.97;1.40;;;;;;;;;;5059442;28;20044;-84
2023/08/14 10:28:59;;;;;;;5.90;1.60;;;;;;;;;;5058133;28;20037;-84
2023/08/14 10:31:29;;;;;;;6.50;1.58;;;;;;;;;;5061415;28;20077;-85
2023/08/14 10:33:55;;;;;;;5.15;1.35;;;;;;;;;;5062476;28;20052;-84
2023/08/14 10:36:22;;;;;;;8.40;1.70;;;;;;;;;;5059488;28;20037;-84
2023/08/14 10:38:50;;;;;;;4.85;1.40;;;;;;;;;;5045590;28;20045;-84
2023/08/14 10:41:17;;;;;;;12.43;1.70;;;;;;;;;;5040452;28;20056;-84
2023/08/14 10:43:43;;;;;;;9.77;1.80;;;;;;;;;;5057291;28;20045;-84
2023/08/14 10:46:15;;;;;;;22.77;2.50;;;;;;;;;;5060227;28;20095;-84
2023/08/14 10:48:42;;;;;;;13.15;2.20;;;;;;;;;;5042030;28;20067;-85
2023/08/14 10:51:09;;;;;;;14.63;2.22;;;;;;;;;;5044638;28;20064;-84
2023/08/14 10:53:35;;;;;;;14.35;2.17;;;;;;;;;;5062469;28;20037;-84
2023/08/14 10:56:01;;;;;;;20.88;2.25;;;;;;;;;;5055181;28;20037;-83
2023/08/14 10:58:35;;;;;;;9.40;1.77;;;;;;;;;;5037595;28;20057;-84
2023/08/14 11:01:11;;;;;;;7.20;1.50;;;;;;;;;;5039299;28;20119;-84
2023/08/14 11:03:56;;;;;;;8.32;1.40;;;;;;;;;;5053559;28;20045;-83
2023/08/14 11:06:23;;;;;;;6.18;1.58;;;;;;;;;;5057176;28;20529;-83
2023/08/14 11:08:50;;;;;;;5.68;1.60;;;;;;;;;;5061492;28;20048;-83
2023/08/14 11:11:16;;;;;;;7.63;1.60;;;;;;;;;;5057774;28;20096;-83
2023/08/14 11:13:46;;;;;;;6.20;1.35;;;;;;;;;;5064360;28;20041;-84
2023/08/14 11:16:12;;;;;;;5.60;1.42;;;;;;;;;;5058835;28;20033;-84
2023/08/14 11:18:38;;;;;;;5.32;1.35;;;;;;;;;;5059560;28;20137;-84
2023/08/14 11:21:04;;;;;;;6.63;1.60;;;;;;;;;;5039615;28;20046;-84
2023/08/14 11:23:33;;;;;;;5.90;1.40;;;;;;;;;;5056240;28;20045;-83
2023/08/14 11:25:59;;;;;;;6.43;1.55;;;;;;;;;;5054582;28;20041;-83
2023/08/14 11:28:25;;;;;;;6.72;1.52;;;;;;;;;;5042073;28;20040;-84
2023/08/14 11:30:51;;;;;;;6.60;1.60;;;;;;;;;;5061851;28;20098;-84
2023/08/14 11:33:23;;;;;;;5.03;1.60;;;;;;;;;;5043959;28;20467;-86
2023/08/14 11:35:49;;;;;;;5.35;1.38;;;;;;;;;;5062698;28;20045;-85
2023/08/14 11:38:15;;;;;;;6.00;2.00;;;;;;;;;;5046888;28;20054;-84
2023/08/14 11:40:41;;;;;;;6.05;1.50;;;;;;;;;;5061042;28;20448;-83
2023/08/14 11:43:07;;;;;;;5.30;1.48;;;;;;;;;;5044441;28;20049;-85
2023/08/14 11:45:33;;;;;;;5.28;1.52;;;;;;;;;;5046123;28;20048;-83
2023/08/14 11:47:59;;;;;;;5.28;1.40;;;;;;;;;;5045518;28;20094;-85
2023/08/14 11:50:25;;;;;;;7.13;1.73;;;;;;;;;;5061985;28;20040;-84
2023/08/14 11:52:51;;;;;;;5.55;1.40;;;;;;;;;;5043324;28;20038;-84
2023/08/14 11:55:20;;;;;;;5.60;1.42;;;;;;;;;;5051782;28;20455;-84
2023/08/14 11:57:47;;;;;;;7.13;1.60;;;;;;;;;;5062752;28;20092;-84
2023/08/14 12:00:13;;;;;;;6.03;1.70;;;;;;;;;;5061390;28;20538;-84
2023/08/14 12:02:40;;;;;;;5.85;1.77;;;;;;;;;;5063764;28;20037;-83
2023/08/14 12:05:07;;;;;;;5.18;1.45;;;;;;;;;;5065576;28;20053;-84
2023/08/14 12:07:33;;;;;;;5.68;1.48;;;;;;;;;;5066087;28;20079;-83
2023/08/14 12:10:00;;;;;;;6.13;1.63;;;;;;;;;;5064062;28;20081;-84
2023/08/14 12:12:26;;;;;;;5.47;1.58;;;;;;;;;;5063912;28;20487;-83
2023/08/14 12:14:53;;;;;;;5.50;1.60;;;;;;;;;;5046008;28;20049;-84
2023/08/14 12:17:19;;;;;;;5.95;1.60;;;;;;;;;;5051268;28;20052;-83
2023/08/14 12:19:48;;;;;;;5.28;1.50;;;;;;;;;;5046915;28;20048;-84
2023/08/14 12:22:14;;;;;;;9.02;2.13;;;;;;;;;;5036007;28;20116;-83
2023/08/14 12:24:41;;;;;;;7.63;1.77;;;;;;;;;;5063980;28;20060;-85
2023/08/14 12:27:14;;;;;;;5.97;1.50;;;;;;;;;;5063405;28;20433;-84
2023/08/14 12:29:40;;;;;;;7.38;2.03;;;;;;;;;;5045811;28;20515;-83
2023/08/14 12:32:06;;;;;;;5.75;1.50;;;;;;;;;;5063563;28;20076;-83
2023/08/14 12:34:32;;;;;;;7.20;1.60;;;;;;;;;;5024315;28;20063;-82
2023/08/14 12:37:02;;;;;;;6.75;2.03;;;;;;;;;;5051281;28;20101;-84
2023/08/14 12:39:28;;;;;;;7.50;2.03;;;;;;;;;;5065696;28;20067;-83
2023/08/14 12:42:01;;;;;;;7.00;1.85;;;;;;;;;;5044976;28;20049;-83
2023/08/14 12:44:28;;;;;;;4.97;1.38;;;;;;;;;;5069739;28;20063;-83
2023/08/14 12:46:54;;;;;;;6.50;1.58;;;;;;;;;;5070823;28;20394;-85
2023/08/14 12:49:21;;;;;;;6.18;1.80;;;;;;;;;;5068509;28;20037;-83
2023/08/14 12:51:48;;;;;;;5.28;1.60;;;;;;;;;;5050758;28;20523;-84
2023/08/14 12:54:14;;;;;;;6.28;1.73;;;;;;;;;;5069740;28;20060;-84
2023/08/14 12:56:40;;;;;;;9.75;2.15;;;;;;;;;;5047770;28;20045;-84
2023/08/14 12:59:07;;;;;;;8.52;2.45;;;;;;;;;;5062092;28;20127;-84
2023/08/14 13:01:33;;;;;;;5.57;1.80;;;;;;;;;;5046798;28;20096;-83
2023/08/14 13:03:59;;;;;;;7.25;1.50;;;;;;;;;;5059176;28;20076;-84
2023/08/14 13:06:27;;;;;;;7.53;1.92;;;;;;;;;;5043775;28;20130;-83
2023/08/14 13:08:53;;;;;;;5.68;1.40;;;;;;;;;;5066819;28;20080;-84
2023/08/14 13:11:19;;;;;;;5.32;1.58;;;;;;;;;;5055693;28;20052;-84
2023/08/14 13:13:45;;;;;;;5.75;1.70;;;;;;;;;;5064433;28;20041;-82
2023/08/14 13:16:11;;;;;;;7.30;1.77;;;;;;;;;;5052230;28;20376;-84
2023/08/14 13:18:37;;;;;;;6.20;1.73;;;;;;;;;;5061983;28;20045;-83
2023/08/14 13:21:03;;;;;;;7.38;1.77;;;;;;;;;;5065741;28;20049;-84
2023/08/14 13:23:30;;;;;;;7.30;1.50;;;;;;;;;;5068923;28;20070;-82
2023/08/14 13:25:56;;;;;;;9.65;1.90;;;;;;;;;;5068201;28;20083;-82
2023/08/14 13:28:22;;;;;;;9.32;2.00;;;;;;;;;;5052240;28;20038;-81
2023/08/14 13:30:49;;;;;;;6.60;1.75;;;;;;;;;;5048224;28;20063;-82
2023/08/14 13:33:15;;;;;;;6.15;1.65;;;;;;;;;;5048445;28;20104;-83
2023/08/14 13:35:42;;;;;;;6.43;1.60;;;;;;;;;;5047879;28;20073;-83
2023/08/14 13:38:08;;;;;;;5.47;1.90;;;;;;;;;;5047407;28;20049;-82
2023/08/14 13:40:34;;;;;;;8.02;1.90;;;;;;;;;;5062230;28;20041;-82
2023/08/14 13:43:00;;;;;;;5.50;1.77;;;;;;;;;;5065185;28;20124;-83
2023/08/14 13:45:28;;;;;;;6.35;1.80;;;;;;;;;;5066961;28;20049;-86
2023/08/14 13:47:54;;;;;;;7.90;1.80;;;;;;;;;;5050413;28;20042;-83
2023/08/14 13:50:20;;;;;;;7.50;1.73;;;;;;;;;;5059701;28;20049;-82
2023/08/14 13:52:46;;;;;;;6.43;1.80;;;;;;;;;;5064135;28;20048;-85
2023/08/14 13:55:12;;;;;;;7.65;1.98;;;;;;;;;;5042602;28;20070;-84
2023/08/14 13:57:38;;;;;;;6.40;1.55;;;;;;;;;;5047589;28;20107;-84
2023/08/14 14:00:04;;;;;;;7.25;1.73;;;;;;;;;;5065102;28;20481;-84
2023/08/14 14:02:30;;;;;;;6.63;1.70;;;;;;;;;;5057800;28;20069;-84
2023/08/14 14:04:57;;;;;;;6.32;2.00;;;;;;;;;;5053054;28;20107;-83
2023/08/14 14:07:23;;;;;;;6.47;1.90;;;;;;;;;;5045837;28;20033;-85
2023/08/14 14:09:49;;;;;;;5.10;1.63;;;;;;;;;;5047120;28;20049;-84
2023/08/14 14:12:15;;;;;;;6.78;2.00;;;;;;;;;;5059962;28;20041;-85
2023/08/14 14:14:41;;;;;;;6.20;1.70;;;;;;;;;;5062905;28;20075;-84
2023/08/14 14:17:07;;;;;;;4.90;1.58;;;;;;;;;;5065463;28;20045;-85
2023/08/14 14:19:34;;;;;;;7.07;1.90;;;;;;;;;;5064016;28;20048;-84
2023/08/14 14:22:00;;;;;;;6.00;1.85;;;;;;;;;;5061675;28;20477;-83
2023/08/14 14:24:28;;;;;;;6.32;1.90;;;;;;;;;;5044605;28;20051;-83
2023/08/14 14:26:54;;;;;;;7.25;1.90;;;;;;;;;;5028783;28;20075;-84
2023/08/14 14:29:20;;;;;;;5.97;2.00;;;;;;;;;;5062148;28;20049;-85
2023/08/14 14:31:46;;;;;;;5.80;1.75;;;;;;;;;;5044417;28;20419;-85
2023/08/14 14:34:12;;;;;;;6.75;1.67;;;;;;;;;;5064755;28;20090;-84
2023/08/14 14:36:38;;;;;;;6.85;1.80;;;;;;;;;;5042639;28;20063;-84
2023/08/14 14:39:04;;;;;;;7.30;1.90;;;;;;;;;;5061530;28;20037;-84
2023/08/14 14:41:30;;;;;;;8.65;2.08;;;;;;;;;;5063561;28;20048;-84
2023/08/14 14:43:56;;;;;;;6.32;2.20;;;;;;;;;;5061723;28;20044;-84
2023/08/14 14:46:22;;;;;;;7.45;2.00;;;;;;;;;;5062383;28;20076;-85
2023/08/14 14:48:49;;;;;;;7.63;1.88;;;;;;;;;;5060212;28;20155;-85
2023/08/14 14:51:15;;;;;;;7.10;1.85;;;;;;;;;;5039033;28;20042;-84
2023/08/14 14:53:41;;;;;;;6.80;1.75;;;;;;;;;;5060554;28;20049;-84
2023/08/14 14:56:07;;;;;;;5.60;1.60;;;;;;;;;;5058567;28;20041;-84
2023/08/14 14:58:33;;;;;;;7.63;1.98;;;;;;;;;;5044884;28;20053;-83
2023/08/14 15:00:59;;;;;;;5.30;1.73;;;;;;;;;;5043484;28;20052;-82
2023/08/14 15:03:25;;;;;;;5.93;1.88;;;;;;;;;;5063840;28;20044;-83
2023/08/14 15:05:52;;;;;;;6.97;1.83;;;;;;;;;;5064063;28;20056;-83
2023/08/14 15:08:18;;;;;;;7.22;2.13;;;;;;;;;;5043416;28;20087;-83
2023/08/14 15:10:45;;;;;;;7.93;2.10;;;;;;;;;;5058645;28;20060;-83
2023/08/14 15:13:11;;;;;;;7.25;1.90;;;;;;;;;;5062262;28;20037;-84
2023/08/14 15:15:37;;;;;;;5.35;1.67;;;;;;;;;;5045180;28;20045;-83
2023/08/14 15:18:03;;;;;;;6.90;1.88;;;;;;;;;;5061090;28;20448;-84
2023/08/14 15:20:29;;;;;;;8.65;2.33;;;;;;;;;;5062834;28;20120;-83
2023/08/14 15:22:56;;;;;;;6.70;1.77;;;;;;;;;;5043216;28;20140;-82
2023/08/14 15:25:22;;;;;;;6.72;1.88;;;;;;;;;;5062167;28;20142;-84
2023/08/14 15:27:48;;;;;;;8.43;2.08;;;;;;;;;;5064322;28;20052;-83
2023/08/14 15:30:16;;;;;;;7.13;1.88;;;;;;;;;;5044742;28;20404;-83
2023/08/14 15:32:42;;;;;;;7.30;1.90;;;;;;;;;;5061338;28;20044;-82
2023/08/14 15:35:08;;;;;;;6.63;1.70;;;;;;;;;;5044765;28;20056;-84
2023/08/14 15:37:35;;;;;;;6.85;2.03;;;;;;;;;;5061776;28;20075;-82
2023/08/14 15:40:01;;;;;;;6.38;2.08;;;;;;;;;;5039616;28;20050;-83
2023/08/14 15:42:27;;;;;;;5.88;1.90;;;;;;;;;;5056907;28;20048;-83
2023/08/14 15:44:54;;;;;;;6.75;1.80;;;;;;;;;;5033159;28;20113;-83
2023/08/14 15:47:20;;;;;;;7.10;1.92;;;;;;;;;;5037195;28;20045;-83
2023/08/14 15:49:46;;;;;;;6.85;1.58;;;;;;;;;;5051761;28;20736;-83
2023/08/14 15:52:14;;;;;;;7.70;1.95;;;;;;;;;;5054642;28;20041;-84